createdAt,value
2022-11-27T00:01:39.082Z,26.33
2022-11-27T00:04:08.752Z,25.67
2022-11-27T00:06:39.377Z,25.77
2022-11-27T00:09:12.079Z,24.83
2022-11-27T00:11:40.973Z,25.53
2022-11-27T00:14:12.034Z,24.83
2022-11-27T00:16:42.644Z,25.20
2022-11-27T00:19:12.581Z,25.73
2022-11-27T00:21:41.102Z,25.20
2022-11-27T00:24:10.532Z,24.60
2022-11-27T00:26:39.027Z,25.50
2022-11-27T00:29:07.940Z,25.97
2022-11-27T00:31:39.829Z,27.30
2022-11-27T00:34:10.189Z,26.93
2022-11-27T00:36:39.787Z,28.03
2022-11-27T00:39:11.516Z,27.53
2022-11-27T00:41:40.381Z,26.57
2022-11-27T00:44:09.079Z,26.57
2022-11-27T00:46:38.216Z,26.27
2022-11-27T00:49:07.857Z,28.10
2022-11-27T00:51:37.659Z,28.30
2022-11-27T00:54:07.036Z,28.73
2022-11-27T00:56:38.291Z,28.73
2022-11-27T00:59:07.424Z,28.07
2022-11-27T01:01:38.316Z,30.27
2022-11-27T01:04:08.751Z,28.47
2022-11-27T01:06:38.713Z,29.60
2022-11-27T01:09:07.404Z,29.67
2022-11-27T01:11:36.895Z,29.17
2022-11-27T01:14:07.578Z,27.67
2022-11-27T01:16:42.643Z,31.57
2022-11-27T01:19:12.828Z,29.83
2022-11-27T01:21:43.135Z,28.83
2022-11-27T01:24:13.646Z,27.40
2022-11-27T01:26:42.400Z,27.87
2022-11-27T01:29:11.426Z,29.33
2022-11-27T01:31:42.154Z,29.33
2022-11-27T01:34:15.804Z,28.73
2022-11-27T01:36:46.673Z,29.93
2022-11-27T01:39:17.286Z,28.67
2022-11-27T01:41:46.227Z,28.30
2022-11-27T01:44:50.372Z,28.73
2022-11-27T01:47:39.689Z,27.60
2022-11-27T01:50:13.653Z,29.50
2022-11-27T01:52:48.919Z,29.57
2022-11-27T01:55:23.306Z,28.67
2022-11-27T01:57:54.958Z,27.80
2022-11-27T02:00:23.856Z,27.37
2022-11-27T02:02:52.505Z,26.40
2022-11-27T02:05:24.694Z,28.13
2022-11-27T02:07:54.890Z,27.40
2022-11-27T02:10:27.806Z,28.43
2022-11-27T02:13:01.126Z,26.67
2022-11-27T02:15:36.930Z,27.37
2022-11-27T02:18:14.976Z,25.03
2022-11-27T02:20:51.868Z,24.77
2022-11-27T02:23:49.526Z,25.47
2022-11-27T02:26:47.003Z,24.67
2022-11-27T02:29:20.964Z,24.47
2022-11-27T02:31:58.165Z,24.40
2022-11-27T02:34:35.920Z,24.33
2022-11-27T02:37:14.932Z,23.77
2022-11-27T02:39:51.031Z,24.33
2022-11-27T02:42:28.171Z,24.97
2022-11-27T02:45:02.546Z,24.80
2022-11-27T02:47:33.903Z,24.60
2022-11-27T02:50:03.746Z,25.73
2022-11-27T02:52:34.305Z,24.00
2022-11-27T02:55:07.207Z,24.97
2022-11-27T02:57:37.972Z,24.77
2022-11-27T03:00:09.785Z,25.73
2022-11-27T03:02:44.030Z,25.20
2022-11-27T03:05:18.539Z,25.47
2022-11-27T03:07:51.416Z,24.53
2022-11-27T03:10:25.858Z,25.07
2022-11-27T03:12:54.485Z,24.80
2022-11-27T03:15:26.397Z,24.87
2022-11-27T03:18:00.377Z,24.13
2022-11-27T03:20:32.949Z,24.30
2022-11-27T03:23:01.364Z,23.93
2022-11-27T03:25:30.461Z,23.43
2022-11-27T03:28:01.626Z,24.00
2022-11-27T03:30:31.607Z,23.67
2022-11-27T03:33:00.604Z,23.90
2022-11-27T03:35:30.042Z,23.60
2022-11-27T03:37:58.570Z,24.57
2022-11-27T03:40:34.797Z,25.33
2022-11-27T03:43:11.233Z,24.93
2022-11-27T03:45:51.957Z,24.00
2022-11-27T03:48:25.738Z,24.97
2022-11-27T03:51:04.337Z,25.33
2022-11-27T03:53:39.976Z,23.83
2022-11-27T03:56:14.164Z,25.37
2022-11-27T03:58:46.486Z,25.40
2022-11-27T04:01:20.189Z,26.90
2022-11-27T04:03:48.978Z,25.70
2022-11-27T04:06:17.750Z,26.40
2022-11-27T04:08:48.058Z,26.57
2022-11-27T04:11:16.907Z,25.63
2022-11-27T04:13:45.252Z,27.97
2022-11-27T04:16:13.729Z,27.53
2022-11-27T04:18:43.542Z,28.43
2022-11-27T04:21:12.908Z,28.37
2022-11-27T04:23:41.552Z,28.07
2022-11-27T04:26:10.190Z,26.77
2022-11-27T04:28:38.675Z,26.60
2022-11-27T04:31:07.329Z,27.00
2022-11-27T04:33:35.854Z,25.57
2022-11-27T04:36:06.077Z,26.23
2022-11-27T04:38:34.498Z,23.10
2022-11-27T04:41:03.024Z,23.00
2022-11-27T04:43:31.524Z,25.13
2022-11-27T04:45:59.904Z,24.23
2022-11-27T04:48:28.283Z,29.53
2022-11-27T04:50:56.729Z,31.13
2022-11-27T04:53:26.694Z,30.63
2022-11-27T04:55:55.134Z,28.47
2022-11-27T04:58:23.562Z,28.50
2022-11-27T05:00:52.105Z,28.87
2022-11-27T05:03:21.217Z,27.20
2022-11-27T05:05:56.727Z,25.60
2022-11-27T05:08:27.429Z,26.07
2022-11-27T05:11:07.297Z,24.47
2022-11-27T05:13:36.396Z,25.53
2022-11-27T05:16:05.565Z,26.20
2022-11-27T05:18:34.293Z,24.00
2022-11-27T05:21:05.265Z,24.63
2022-11-27T05:23:36.245Z,25.60
2022-11-27T05:26:04.682Z,25.50
2022-11-27T05:28:33.079Z,26.00
2022-11-27T05:31:01.506Z,25.77
2022-11-27T05:33:29.892Z,30.67
2022-11-27T05:35:58.390Z,29.67
2022-11-27T05:38:27.191Z,30.73
2022-11-27T05:40:57.354Z,29.90
2022-11-27T05:43:25.805Z,26.83
2022-11-27T05:45:54.271Z,26.47
2022-11-27T05:48:22.710Z,27.13
2022-11-27T05:50:51.255Z,25.03
2022-11-27T05:53:19.629Z,24.33
2022-11-27T05:55:48.039Z,23.77
2022-11-27T05:58:17.941Z,23.77
2022-11-27T06:00:47.024Z,24.27
2022-11-27T06:03:15.561Z,23.20
2022-11-27T06:05:44.071Z,25.97
2022-11-27T06:08:12.612Z,29.63
2022-11-27T06:10:41.250Z,31.87
2022-11-27T06:13:09.787Z,28.37
2022-11-27T06:15:40.411Z,29.00
2022-11-27T06:18:09.443Z,26.93
2022-11-27T06:20:43.371Z,26.13
2022-11-27T06:23:12.719Z,25.30
2022-11-27T06:25:41.147Z,24.17
2022-11-27T06:28:09.780Z,24.77
2022-11-27T06:30:40.526Z,23.80
2022-11-27T06:33:08.925Z,24.10
2022-11-27T06:35:37.504Z,24.47
2022-11-27T06:38:05.888Z,24.73
2022-11-27T06:40:34.380Z,24.97
2022-11-27T06:43:02.802Z,25.03
2022-11-27T06:45:31.271Z,24.97
2022-11-27T06:48:01.475Z,24.63
2022-11-27T06:50:29.841Z,26.00
2022-11-27T06:52:58.323Z,24.37
2022-11-27T06:55:27.009Z,27.43
2022-11-27T06:57:56.980Z,25.47
2022-11-27T07:00:25.420Z,27.10
2022-11-27T07:02:56.160Z,25.97
2022-11-27T07:05:26.489Z,27.07
2022-11-27T07:07:54.972Z,27.07
2022-11-27T07:10:23.627Z,25.20
2022-11-27T07:12:51.989Z,24.47
2022-11-27T07:15:20.408Z,24.37
2022-11-27T07:17:48.917Z,25.17
2022-11-27T07:20:17.602Z,24.97
2022-11-27T07:22:47.527Z,23.83
2022-11-27T07:25:15.966Z,21.63
2022-11-27T07:27:44.425Z,21.80
2022-11-27T07:30:13.612Z,23.83
2022-11-27T07:32:42.105Z,23.43
2022-11-27T07:35:12.007Z,23.30
2022-11-27T07:37:40.483Z,21.60
2022-11-27T07:40:10.894Z,22.77
2022-11-27T07:42:39.536Z,20.13
2022-11-27T07:45:09.194Z,20.60
2022-11-27T07:47:37.756Z,19.47
2022-11-27T07:50:08.583Z,20.17
2022-11-27T07:52:41.534Z,18.93
2022-11-27T07:55:12.121Z,17.97
2022-11-27T07:57:40.600Z,17.13
2022-11-27T08:00:10.233Z,19.97
2022-11-27T08:02:38.668Z,17.87
2022-11-27T08:05:12.484Z,17.20
2022-11-27T08:07:42.166Z,17.17
2022-11-27T08:10:12.390Z,17.90
2022-11-27T08:12:40.900Z,18.33
2022-11-27T08:15:10.660Z,18.50
2022-11-27T08:17:39.243Z,20.73
2022-11-27T08:20:09.157Z,19.23
2022-11-27T08:22:39.325Z,19.40
2022-11-27T08:25:08.538Z,21.17
2022-11-27T08:27:38.447Z,20.00
2022-11-27T08:30:09.646Z,17.53
2022-11-27T08:32:40.127Z,17.40
2022-11-27T08:35:09.511Z,19.73
2022-11-27T08:37:38.036Z,18.60
2022-11-27T08:40:07.765Z,18.70
2022-11-27T08:42:37.658Z,18.03
2022-11-27T08:45:06.513Z,18.17
2022-11-27T08:47:34.954Z,17.47
2022-11-27T08:50:03.474Z,17.40
2022-11-27T08:52:32.109Z,18.33
2022-11-27T08:55:00.574Z,17.20
2022-11-27T08:57:29.129Z,16.07
2022-11-27T08:59:59.010Z,15.47
2022-11-27T09:02:27.429Z,16.83
2022-11-27T09:04:55.879Z,16.50
2022-11-27T09:07:24.413Z,14.77
2022-11-27T09:09:52.889Z,14.93
2022-11-27T09:12:21.357Z,15.90
2022-11-27T09:14:49.750Z,16.03
2022-11-27T09:17:19.837Z,17.97
2022-11-27T09:19:48.211Z,19.37
2022-11-27T09:22:16.601Z,18.77
2022-11-27T09:24:45.068Z,16.63
2022-11-27T09:27:13.528Z,18.03
2022-11-27T09:29:42.017Z,18.63
2022-11-27T09:32:10.533Z,18.47
2022-11-27T09:34:40.956Z,16.47
2022-11-27T09:37:10.365Z,18.50
2022-11-27T09:39:39.082Z,16.67
2022-11-27T09:42:09.870Z,16.10
2022-11-27T09:44:45.568Z,16.17
2022-11-27T09:47:21.518Z,18.87
2022-11-27T09:49:55.214Z,18.53
2022-11-27T09:52:29.498Z,26.33
2022-11-27T09:55:02.873Z,23.13
2022-11-27T09:57:35.856Z,23.83
2022-11-27T10:00:08.229Z,24.73
2022-11-27T10:02:37.141Z,22.27
2022-11-27T10:05:16.969Z,23.03
2022-11-27T10:08:10.952Z,18.90
2022-11-27T10:10:46.880Z,19.23
2022-11-27T10:13:39.237Z,21.17
2022-11-27T10:16:14.355Z,23.60
2022-11-27T10:18:48.184Z,20.63
2022-11-27T10:21:27.363Z,19.87
2022-11-27T10:24:03.071Z,22.03
2022-11-27T10:26:39.384Z,20.77
2022-11-27T10:29:17.894Z,18.40
2022-11-27T10:31:51.229Z,20.10
2022-11-27T10:34:27.655Z,20.73
2022-11-27T10:36:59.097Z,19.13
2022-11-27T10:39:41.384Z,18.47
2022-11-27T10:42:15.785Z,21.53
2022-11-27T10:44:49.331Z,22.97
2022-11-27T10:47:19.969Z,20.27
2022-11-27T10:49:49.807Z,19.63
2022-11-27T10:52:21.413Z,20.50
2022-11-27T10:54:55.786Z,21.87
2022-11-27T10:57:44.723Z,18.83
2022-11-27T11:00:17.208Z,18.33
2022-11-27T11:02:45.752Z,18.23
2022-11-27T11:05:57.480Z,19.63
2022-11-27T11:08:19.270Z,17.03
2022-11-27T11:10:53.061Z,19.03
2022-11-27T11:13:23.842Z,17.53
2022-11-27T11:15:56.493Z,17.27
2022-11-27T11:18:27.042Z,19.60
2022-11-27T11:20:57.968Z,20.37
2022-11-27T11:23:34.185Z,19.70
2022-11-27T11:26:07.062Z,19.83
2022-11-27T11:28:43.693Z,18.03
2022-11-27T11:31:16.126Z,19.50
2022-11-27T11:33:52.610Z,17.60
2022-11-27T11:36:21.631Z,18.33
2022-11-27T11:38:52.344Z,18.47
2022-11-27T11:41:22.000Z,17.27
2022-11-27T11:44:02.052Z,17.40
2022-11-27T11:46:33.947Z,17.20
2022-11-27T11:49:07.022Z,18.57
2022-11-27T11:52:04.637Z,17.50
2022-11-27T11:54:56.481Z,17.10
2022-11-27T11:58:00.906Z,15.93
2022-11-27T12:01:04.431Z,19.77
2022-11-27T12:03:41.856Z,20.90
2022-11-27T12:06:34.280Z,18.97
2022-11-27T12:09:15.500Z,18.20
2022-11-27T12:11:53.478Z,18.13
2022-11-27T12:14:37.631Z,18.53
2022-11-27T12:17:17.960Z,19.33
2022-11-27T12:20:15.440Z,18.43
2022-11-27T12:23:10.281Z,19.03
2022-11-27T12:25:43.089Z,19.13
2022-11-27T12:28:26.555Z,19.87
2022-11-27T12:31:05.480Z,16.80
2022-11-27T12:33:49.839Z,17.57
2022-11-27T12:36:30.201Z,15.83
2022-11-27T12:39:13.764Z,16.27
2022-11-27T12:42:02.189Z,15.27
2022-11-27T12:44:44.812Z,17.13
2022-11-27T12:47:20.390Z,18.57
2022-11-27T12:49:53.202Z,17.13
2022-11-27T12:52:25.079Z,15.97
2022-11-27T12:54:59.240Z,17.80
2022-11-27T12:57:35.556Z,17.57
2022-11-27T13:00:08.452Z,16.37
2022-11-27T13:02:39.867Z,16.80
2022-11-27T13:05:13.554Z,17.50
2022-11-27T13:07:47.685Z,16.17
2022-11-27T13:10:25.456Z,15.40
2022-11-27T13:13:02.413Z,16.70
2022-11-27T13:15:40.776Z,16.50
2022-11-27T13:18:20.403Z,16.33
2022-11-27T13:20:52.514Z,14.77
2022-11-27T13:23:21.548Z,14.90
2022-11-27T13:25:53.231Z,15.10
2022-11-27T13:28:31.175Z,14.93
2022-11-27T13:31:02.917Z,18.30
2022-11-27T13:33:38.634Z,18.80
2022-11-27T13:36:19.081Z,19.30
2022-11-27T13:38:53.197Z,23.27
2022-11-27T13:41:22.758Z,21.23
2022-11-27T13:43:52.925Z,17.97
2022-11-27T13:46:26.195Z,17.93
2022-11-27T13:48:57.788Z,17.90
2022-11-27T13:51:29.663Z,18.17
2022-11-27T13:54:10.111Z,16.77
2022-11-27T13:56:38.792Z,17.77
2022-11-27T13:59:21.604Z,18.00
2022-11-27T14:01:59.493Z,21.57
2022-11-27T14:04:28.803Z,21.90
2022-11-27T14:07:03.382Z,23.30
2022-11-27T14:09:38.289Z,26.30
2022-11-27T14:12:18.624Z,23.50
2022-11-27T14:15:02.523Z,23.23
2022-11-27T14:17:39.250Z,19.93
2022-11-27T14:20:22.707Z,19.93
2022-11-27T14:23:12.197Z,19.03
2022-11-27T14:25:41.329Z,20.03
2022-11-27T14:28:16.274Z,19.87
2022-11-27T14:30:48.449Z,19.40
2022-11-27T14:33:23.980Z,22.67
2022-11-27T14:35:53.710Z,25.80
2022-11-27T14:38:22.509Z,25.23
2022-11-27T14:40:53.424Z,24.97
2022-11-27T14:43:26.145Z,27.63
2022-11-27T14:45:56.862Z,24.00
2022-11-27T14:48:28.612Z,23.63
2022-11-27T14:50:58.081Z,23.40
2022-11-27T14:53:29.732Z,25.70
2022-11-27T14:55:59.923Z,23.27
2022-11-27T14:58:29.710Z,21.47
2022-11-27T15:01:01.793Z,20.97
2022-11-27T15:03:32.397Z,20.80
2022-11-27T15:06:03.012Z,22.17
2022-11-27T15:08:34.711Z,23.37
2022-11-27T15:11:05.501Z,23.07
2022-11-27T15:13:36.043Z,24.07
2022-11-27T15:16:07.739Z,22.83
2022-11-27T15:18:39.836Z,23.53
2022-11-27T15:21:13.285Z,24.20
2022-11-27T15:23:47.004Z,24.10
2022-11-27T15:26:22.493Z,22.13
2022-11-27T15:28:54.803Z,23.20
2022-11-27T15:31:26.012Z,24.20
2022-11-27T15:34:01.873Z,25.77
2022-11-27T15:36:37.867Z,26.10
2022-11-27T15:39:23.116Z,24.07
2022-11-27T15:41:56.130Z,23.53
2022-11-27T15:44:25.078Z,25.10
2022-11-27T15:46:55.095Z,23.17
2022-11-27T15:49:25.180Z,21.27
2022-11-27T15:51:53.834Z,21.93
2022-11-27T15:54:22.311Z,23.87
2022-11-27T15:56:50.876Z,22.83
2022-11-27T15:59:20.951Z,24.07
2022-11-27T16:01:50.296Z,25.07
2022-11-27T16:04:21.960Z,24.17
2022-11-27T16:06:51.804Z,25.33
2022-11-27T16:09:20.174Z,26.07
2022-11-27T16:11:48.884Z,27.17
2022-11-27T16:14:17.416Z,27.80
2022-11-27T16:16:45.992Z,27.67
2022-11-27T16:19:15.121Z,28.80
2022-11-27T16:21:43.611Z,35.97
2022-11-27T16:24:15.260Z,40.13
2022-11-27T16:26:44.104Z,36.67
2022-11-27T16:29:12.915Z,36.63
2022-11-27T16:31:41.924Z,41.90
2022-11-27T16:34:10.435Z,37.47
2022-11-27T16:36:41.387Z,30.10
2022-11-27T16:39:09.874Z,27.17
2022-11-27T16:41:39.762Z,27.33
2022-11-27T16:44:12.753Z,30.83
2022-11-27T16:46:41.644Z,31.17
2022-11-27T16:49:10.139Z,31.17
2022-11-27T16:51:40.291Z,29.80
2022-11-27T16:54:12.581Z,29.30
2022-11-27T16:56:42.449Z,27.13
2022-11-27T16:59:11.447Z,26.60
2022-11-27T17:01:41.355Z,30.00
2022-11-27T17:04:10.973Z,27.83
2022-11-27T17:06:40.194Z,28.23
2022-11-27T17:09:09.622Z,29.50
2022-11-27T17:11:42.576Z,25.50
2022-11-27T17:14:13.168Z,24.23
2022-11-27T17:16:42.972Z,24.27
2022-11-27T17:19:14.199Z,24.67
2022-11-27T17:21:43.354Z,22.50
2022-11-27T17:24:15.951Z,22.47
2022-11-27T17:26:46.044Z,23.57
2022-11-27T17:29:17.962Z,23.73
2022-11-27T17:31:46.530Z,25.20
2022-11-27T17:34:16.776Z,26.90
2022-11-27T17:36:46.153Z,28.07
2022-11-27T17:39:15.950Z,28.23
2022-11-27T17:41:45.482Z,27.93
2022-11-27T17:44:15.505Z,27.87
2022-11-27T17:46:48.294Z,29.27
2022-11-27T17:49:16.880Z,28.47
2022-11-27T17:51:45.286Z,29.40
2022-11-27T17:54:13.662Z,28.77
2022-11-27T17:56:42.147Z,28.23
2022-11-27T17:59:10.751Z,27.43
2022-11-27T18:01:40.867Z,26.73
2022-11-27T18:04:10.759Z,26.70
2022-11-27T18:06:39.204Z,28.90
2022-11-27T18:09:07.659Z,30.13
2022-11-27T18:11:36.237Z,26.67
2022-11-27T18:14:05.376Z,28.70
2022-11-27T18:16:35.699Z,28.43
2022-11-27T18:19:07.565Z,30.60
2022-11-27T18:21:36.364Z,30.97
2022-11-27T18:24:23.658Z,32.77
2022-11-27T18:27:07.648Z,31.00
2022-11-27T18:29:37.697Z,33.63
2022-11-27T18:32:06.842Z,36.87
2022-11-27T18:34:36.782Z,36.47
2022-11-27T18:37:06.033Z,38.77
2022-11-27T18:39:35.443Z,42.97
2022-11-27T18:42:05.237Z,38.77
2022-11-27T18:44:38.376Z,35.67
2022-11-27T18:47:10.393Z,34.07
2022-11-27T18:49:41.150Z,32.00
2022-11-27T18:52:10.956Z,29.77
2022-11-27T18:54:39.654Z,27.67
2022-11-27T18:57:08.316Z,31.13
2022-11-27T18:59:36.870Z,31.33
2022-11-27T19:02:06.233Z,31.37
2022-11-27T19:04:37.586Z,32.17
2022-11-27T19:07:07.587Z,31.10
2022-11-27T19:09:35.991Z,34.53
2022-11-27T19:12:04.537Z,35.37
2022-11-27T19:14:32.984Z,34.47
2022-11-27T19:17:01.343Z,34.37
2022-11-27T19:22:22.966Z,32.50
2022-11-27T19:24:51.387Z,33.97
2022-11-27T19:27:19.787Z,32.67
2022-11-27T19:29:49.117Z,34.17
2022-11-27T19:32:18.107Z,33.07
2022-11-27T19:34:46.472Z,30.63
2022-11-27T19:37:15.330Z,32.07
2022-11-27T19:39:45.346Z,29.73
2022-11-27T19:42:13.916Z,29.93
2022-11-27T19:44:42.903Z,30.33
2022-11-27T19:47:11.520Z,29.40
2022-11-27T19:49:40.655Z,30.13
2022-11-27T19:52:09.068Z,33.70
2022-11-27T19:54:37.674Z,34.50
2022-11-27T19:57:08.907Z,35.30
2022-11-27T19:59:38.044Z,37.40
2022-11-27T20:02:06.570Z,34.50
2022-11-27T20:04:35.091Z,33.07
2022-11-27T20:07:03.578Z,34.33
2022-11-27T20:09:31.979Z,31.93
2022-11-27T20:12:01.815Z,32.83
2022-11-27T20:14:31.640Z,32.87
2022-11-27T20:17:00.110Z,33.13
2022-11-27T20:19:30.725Z,34.40
2022-11-27T20:21:59.159Z,33.37
2022-11-27T20:24:27.572Z,33.23
2022-11-27T20:26:56.041Z,32.87
2022-11-27T20:29:24.458Z,33.17
2022-11-27T20:31:54.380Z,34.60
2022-11-27T20:34:23.888Z,32.00
2022-11-27T20:36:52.325Z,109.03
2022-11-27T20:39:21.858Z,79.90
2022-11-27T20:41:53.590Z,68.27
2022-11-27T20:44:23.685Z,77.47
2022-11-27T20:46:54.136Z,35.47
2022-11-27T20:49:22.579Z,34.37
2022-11-27T20:51:50.970Z,35.43
2022-11-27T20:54:19.474Z,62.33
2022-11-27T20:56:48.179Z,71.40
2022-11-27T20:59:16.541Z,68.50
2022-11-27T21:01:45.050Z,89.57
2022-11-27T21:04:23.095Z,45.17
2022-11-27T21:06:51.987Z,41.63
2022-11-27T21:09:21.243Z,38.97
2022-11-27T21:11:49.687Z,37.43
2022-11-27T21:14:19.025Z,37.07
2022-11-27T21:16:49.975Z,36.90
2022-11-27T21:19:22.130Z,38.30
2022-11-27T21:21:51.547Z,35.43
2022-11-27T21:24:21.148Z,39.23
2022-11-27T21:26:50.054Z,39.57
2022-11-27T21:29:24.905Z,40.10
2022-11-27T21:31:54.186Z,41.87
2022-11-27T21:34:24.208Z,41.93
2022-11-27T21:36:52.615Z,41.87
2022-11-27T21:39:21.356Z,47.77
2022-11-27T21:41:51.952Z,49.73
2022-11-27T21:44:20.871Z,49.33
2022-11-27T21:46:50.296Z,50.93
2022-11-27T21:49:20.327Z,49.23
2022-11-27T21:51:52.514Z,49.20
2022-11-27T21:54:21.331Z,48.33
2022-11-27T21:56:52.905Z,47.13
2022-11-27T21:59:21.343Z,48.63
2022-11-27T22:01:49.958Z,42.77
2022-11-27T22:04:18.565Z,42.93
2022-11-27T22:06:47.303Z,43.20
2022-11-27T22:09:17.394Z,45.60
2022-11-27T22:11:46.980Z,43.67
2022-11-27T22:14:17.153Z,42.07
2022-11-27T22:16:47.280Z,44.43
2022-11-27T22:19:16.342Z,47.87
2022-11-27T22:21:45.795Z,48.43
2022-11-27T22:24:18.817Z,43.10
2022-11-27T22:26:49.696Z,42.17
2022-11-27T22:29:18.317Z,85.37
2022-11-27T22:31:46.764Z,85.43
2022-11-27T22:34:15.193Z,66.03
2022-11-27T22:36:43.513Z,43.00
2022-11-27T22:39:11.966Z,42.03
2022-11-27T22:41:42.395Z,51.40
2022-11-27T22:44:16.505Z,38.80
2022-11-27T22:46:45.508Z,43.97
2022-11-27T22:49:15.727Z,38.50
2022-11-27T22:51:44.147Z,63.30
2022-11-27T22:54:15.120Z,77.27
2022-11-27T22:56:45.683Z,98.80
2022-11-27T22:59:33.223Z,56.20
2022-11-27T23:02:02.633Z,45.83
2022-11-27T23:04:31.208Z,46.10
2022-11-27T23:06:59.915Z,42.20
2022-11-27T23:09:28.412Z,35.90
2022-11-27T23:11:57.235Z,32.20
2022-11-27T23:14:27.798Z,34.07
2022-11-27T23:16:56.324Z,37.27
2022-11-27T23:19:25.107Z,38.10
2022-11-27T23:21:53.577Z,36.43
2022-11-27T23:24:22.043Z,36.17
2022-11-27T23:26:50.450Z,34.70
2022-11-27T23:29:18.935Z,31.67
2022-11-27T23:31:48.829Z,33.13
2022-11-27T23:34:17.353Z,30.80
2022-11-27T23:36:46.067Z,31.83
2022-11-27T23:39:15.685Z,29.47
2022-11-27T23:41:44.617Z,30.37
2022-11-27T23:44:13.256Z,30.87
2022-11-27T23:46:41.718Z,30.57
2022-11-27T23:49:11.727Z,31.47
2022-11-27T23:51:40.184Z,32.23
2022-11-27T23:54:10.993Z,30.40
2022-11-27T23:56:40.030Z,32.30
2022-11-27T23:59:08.754Z,32.43
